• Join FlightAware (Why Join?)
  • Login
  • US Flag 
10:09PM EST


 

Airport Tracker/Info


-or-


 

Live Flight TrackerFlight Track Log ✈ N27XP ✈ 18-Nov-2013 ✈ KSOP - KCLT

Flight Track Log - Related Links

Times and Time Zones

All times are in EST time to prevent confusion due to time zone crossing. See the N27XP flight status page for this flight to view local times or setup timezone preferences in your user account.

Time Position Orientation Groundspeed Altitude Reporting Facility
EST Latitude Longitude Course Direction KTS MPH feet Rate Location/Type
05:52PM 35.2119 -79.8875 265° West 259 298 6,000  Level Atlanta Center
05:53PM 35.2337 -79.7865 270° West  Level Estimated
05:54PM 35.2329 -79.8529 270° West  Level Estimated
05:54PM 35.2078 -80.0097 268° West 261 300 6,000  Level Atlanta Center
05:55PM 35.2293 -79.9191 266° West  Level FlightAware Approximate
05:55PM 35.2064 -80.0989 269° West 260 299 5,500  Level Atlanta Center
05:56PM 35.2256 -79.9854 266° West  Level FlightAware Approximate
05:56PM 35.1886 -80.1911 257° West 261 300 4,300  Level Atlanta Center
05:57PM 35.2219 -80.0516 266° West  Level FlightAware Approximate
05:57PM 35.1619 -80.2764 249° West 262 302 4,000  Level Atlanta Center
05:58PM 35.2215 -80.1179 265° West  Level Estimated
05:58PM 35.1372 -80.3561 249° West 263 303 4,000  Level Atlanta Center
05:59PM 35.1128 -80.4408 251° West 265 305 4,000  Level Atlanta Center
06:00PM 35.0881 -80.5283 251° West 265 305 4,000  Level Atlanta Center
06:01PM 35.0617 -80.6258 252° West 262 302 4,000  Level Atlanta Center
06:02PM 35.0569 -80.6894 265° West 248 285 4,000  Level Atlanta Center
06:03PM 35.0467 -80.7661 261° West 205 236 4,000 -300 Level Atlanta Center
06:04PM 35.0461 -80.8244 269° West 145 167 3,500 -780 Descending Atlanta Center
06:05PM 35.0619 -80.8769 290° West 164 189 2,400 -600 Descending Atlanta Center
06:06PM 35.0942 -80.9039 326° Northwest 130 150 2,300 -120 Descending Atlanta Center
06:07PM 35.1239 -80.9281 326° Northwest 124 143 2,200 -360 Descending Atlanta Center
06:08PM 35.1511 -80.9319 353° North 99 114 1,700 -600 Descending Atlanta Center
06:09PM 35.1844 -80.9358 355° North 108 124 1,100 -540 Descending Atlanta Center